sensor_id;sensor_type;location;lat;lon;timestamp;temperature;humidity
1005;DHT22;491;53.480;10.174;2022-07-21T00:00:56;21.00;1.00
1005;DHT22;491;53.480;10.174;2022-07-21T00:03:22;20.90;1.00
1005;DHT22;491;53.480;10.174;2022-07-21T00:05:47;20.80;1.00
1005;DHT22;491;53.480;10.174;2022-07-21T00:08:13;20.80;1.00
1005;DHT22;491;53.480;10.174;2022-07-21T00:10:39;20.80;1.00
1005;DHT22;491;53.480;10.174;2022-07-21T00:13:05;20.80;1.00
1005;DHT22;491;53.480;10.174;2022-07-21T00:15:31;20.80;1.00
1005;DHT22;491;53.480;10.174;2022-07-21T00:17:57;20.90;99.90
1005;DHT22;491;53.480;10.174;2022-07-21T00:20:23;20.80;99.90
1005;DHT22;491;53.480;10.174;2022-07-21T00:22:49;20.80;99.90
1005;DHT22;491;53.480;10.174;2022-07-21T00:25:15;20.80;99.90
1005;DHT22;491;53.480;10.174;2022-07-21T00:27:41;20.80;99.90
1005;DHT22;491;53.480;10.174;2022-07-21T00:30:08;20.70;99.90
1005;DHT22;491;53.480;10.174;2022-07-21T00:32:34;20.70;99.90
1005;DHT22;491;53.480;10.174;2022-07-21T00:34:59;20.60;1.00
1005;DHT22;491;53.480;10.174;2022-07-21T00:37:25;20.60;1.00
1005;DHT22;491;53.480;10.174;2022-07-21T00:39:53;20.50;99.90
1005;DHT22;491;53.480;10.174;2022-07-21T00:42:25;20.50;1.00
1005;DHT22;491;53.480;10.174;2022-07-21T00:44:51;20.50;1.00
1005;DHT22;491;53.480;10.174;2022-07-21T00:47:24;20.30;1.00
1005;DHT22;491;53.480;10.174;2022-07-21T00:49:50;20.30;1.00
1005;DHT22;491;53.480;10.174;2022-07-21T00:52:16;20.40;1.00
1005;DHT22;491;53.480;10.174;2022-07-21T00:54:42;20.40;1.00
1005;DHT22;491;53.480;10.174;2022-07-21T00:57:09;20.40;1.00
1005;DHT22;491;53.480;10.174;2022-07-21T00:59:34;20.40;1.00
1005;DHT22;491;53.480;10.174;2022-07-21T01:02:00;20.40;1.00
1005;DHT22;491;53.480;10.174;2022-07-21T01:04:27;20.30;1.00
1005;DHT22;491;53.480;10.174;2022-07-21T01:06:53;20.20;1.00
1005;DHT22;491;53.480;10.174;2022-07-21T01:09:20;20.30;1.00
1005;DHT22;491;53.480;10.174;2022-07-21T01:11:46;20.20;1.00
1005;DHT22;491;53.480;10.174;2022-07-21T01:14:12;20.20;1.00
1005;DHT22;491;53.480;10.174;2022-07-21T01:16:39;20.10;1.00
1005;DHT22;491;53.480;10.174;2022-07-21T01:19:05;20.10;1.00
1005;DHT22;491;53.480;10.174;2022-07-21T01:21:33;20.10;1.00
1005;DHT22;491;53.480;10.174;2022-07-21T01:24:00;20.10;1.00
1005;DHT22;491;53.480;10.174;2022-07-21T01:26:26;20.10;1.00
1005;DHT22;491;53.480;10.174;2022-07-21T01:28:52;20.00;1.00
1005;DHT22;491;53.480;10.174;2022-07-21T01:31:18;20.10;1.00
1005;DHT22;491;53.480;10.174;2022-07-21T01:33:43;20.10;1.00
1005;DHT22;491;53.480;10.174;2022-07-21T01:36:09;20.10;1.00
1005;DHT22;491;53.480;10.174;2022-07-21T01:38:34;20.10;1.00
1005;DHT22;491;53.480;10.174;2022-07-21T01:41:19;20.20;1.00
1005;DHT22;491;53.480;10.174;2022-07-21T01:44:00;20.30;1.00
1005;DHT22;491;53.480;10.174;2022-07-21T01:46:27;20.30;1.00
1005;DHT22;491;53.480;10.174;2022-07-21T01:48:53;20.20;1.00
1005;DHT22;491;53.480;10.174;2022-07-21T01:51:19;20.20;1.00
1005;DHT22;491;53.480;10.174;2022-07-21T01:53:44;20.10;1.00
1005;DHT22;491;53.480;10.174;2022-07-21T01:56:10;20.10;33.60
1005;DHT22;491;53.480;10.174;2022-07-21T01:58:35;20.00;93.60
1005;DHT22;491;53.480;10.174;2022-07-21T02:01:02;19.90;99.90
1005;DHT22;491;53.480;10.174;2022-07-21T02:03:27;19.90;99.90
1005;DHT22;491;53.480;10.174;2022-07-21T02:05:53;19.90;99.90
1005;DHT22;491;53.480;10.174;2022-07-21T02:08:18;19.90;99.90
1005;DHT22;491;53.480;10.174;2022-07-21T02:10:44;19.90;99.90
1005;DHT22;491;53.480;10.174;2022-07-21T02:13:09;19.80;99.90
1005;DHT22;491;53.480;10.174;2022-07-21T02:15:35;19.80;99.90
1005;DHT22;491;53.480;10.174;2022-07-21T02:18:01;19.90;99.90
1005;DHT22;491;53.480;10.174;2022-07-21T02:20:27;19.80;99.90
1005;DHT22;491;53.480;10.174;2022-07-21T02:22:53;19.80;99.90
1005;DHT22;491;53.480;10.174;2022-07-21T02:25:19;19.70;99.90
1005;DHT22;491;53.480;10.174;2022-07-21T02:27:45;19.80;99.90
1005;DHT22;491;53.480;10.174;2022-07-21T02:30:12;19.70;99.90
1005;DHT22;491;53.480;10.174;2022-07-21T02:32:38;19.70;99.90
1005;DHT22;491;53.480;10.174;2022-07-21T02:35:04;19.60;99.90
1005;DHT22;491;53.480;10.174;2022-07-21T02:37:30;19.60;99.90
1005;DHT22;491;53.480;10.174;2022-07-21T02:39:56;19.50;99.90
1005;DHT22;491;53.480;10.174;2022-07-21T02:42:21;19.50;99.90
1005;DHT22;491;53.480;10.174;2022-07-21T02:44:47;19.60;99.90
1005;DHT22;491;53.480;10.174;2022-07-21T02:47:12;19.60;99.90
1005;DHT22;491;53.480;10.174;2022-07-21T02:49:38;19.50;99.90
1005;DHT22;491;53.480;10.174;2022-07-21T02:52:04;19.50;99.90
1005;DHT22;491;53.480;10.174;2022-07-21T02:54:30;19.60;99.90
1005;DHT22;491;53.480;10.174;2022-07-21T02:56:55;19.60;99.90
1005;DHT22;491;53.480;10.174;2022-07-21T02:59:21;19.50;99.90
1005;DHT22;491;53.480;10.174;2022-07-21T03:01:46;19.50;99.90
1005;DHT22;491;53.480;10.174;2022-07-21T03:04:12;19.50;99.90
1005;DHT22;491;53.480;10.174;2022-07-21T03:06:38;19.50;99.90
1005;DHT22;491;53.480;10.174;2022-07-21T03:09:04;19.40;99.90
1005;DHT22;491;53.480;10.174;2022-07-21T03:11:29;19.40;99.90
1005;DHT22;491;53.480;10.174;2022-07-21T03:13:55;19.40;99.90
1005;DHT22;491;53.480;10.174;2022-07-21T03:16:20;19.40;99.90
1005;DHT22;491;53.480;10.174;2022-07-21T03:18:46;19.30;99.90
1005;DHT22;491;53.480;10.174;2022-07-21T03:21:12;19.30;99.90
1005;DHT22;491;53.480;10.174;2022-07-21T03:23:37;19.30;99.90
1005;DHT22;491;53.480;10.174;2022-07-21T03:26:03;19.30;99.90
1005;DHT22;491;53.480;10.174;2022-07-21T03:28:30;19.40;99.90
1005;DHT22;491;53.480;10.174;2022-07-21T03:30:56;19.30;99.90
1005;DHT22;491;53.480;10.174;2022-07-21T03:33:21;19.30;99.90
1005;DHT22;491;53.480;10.174;2022-07-21T03:35:47;19.30;99.90
1005;DHT22;491;53.480;10.174;2022-07-21T03:38:12;19.30;99.90
1005;DHT22;491;53.480;10.174;2022-07-21T03:40:38;19.30;99.90
1005;DHT22;491;53.480;10.174;2022-07-21T03:43:05;19.40;99.90
1005;DHT22;491;53.480;10.174;2022-07-21T03:45:32;19.30;99.90
1005;DHT22;491;53.480;10.174;2022-07-21T03:47:59;19.30;99.90
1005;DHT22;491;53.480;10.174;2022-07-21T03:50:26;19.40;99.90
1005;DHT22;491;53.480;10.174;2022-07-21T03:52:51;19.40;99.90
1005;DHT22;491;53.480;10.174;2022-07-21T03:55:17;19.50;99.90
1005;DHT22;491;53.480;10.174;2022-07-21T04:00:17;19.60;99.90
1005;DHT22;491;53.480;10.174;2022-07-21T04:02:44;19.60;99.90
1005;DHT22;491;53.480;10.174;2022-07-21T04:05:11;19.60;99.90
1005;DHT22;491;53.480;10.174;2022-07-21T04:07:42;19.60;99.90
1005;DHT22;491;53.480;10.174;2022-07-21T04:10:09;19.50;99.90
1005;DHT22;491;53.480;10.174;2022-07-21T04:12:36;19.50;99.90
1005;DHT22;491;53.480;10.174;2022-07-21T04:15:02;19.60;99.90
1005;DHT22;491;53.480;10.174;2022-07-21T04:17:28;19.60;99.90
1005;DHT22;491;53.480;10.174;2022-07-21T04:19:53;19.60;99.90
1005;DHT22;491;53.480;10.174;2022-07-21T04:22:19;19.80;99.90
1005;DHT22;491;53.480;10.174;2022-07-21T04:24:45;19.80;99.90
1005;DHT22;491;53.480;10.174;2022-07-21T04:27:10;19.80;99.90
1005;DHT22;491;53.480;10.174;2022-07-21T04:29:43;19.90;99.90
1005;DHT22;491;53.480;10.174;2022-07-21T04:32:08;20.00;99.90
1005;DHT22;491;53.480;10.174;2022-07-21T04:34:34;20.10;99.90
1005;DHT22;491;53.480;10.174;2022-07-21T04:36:59;20.20;99.90
1005;DHT22;491;53.480;10.174;2022-07-21T04:39:25;20.30;99.90
1005;DHT22;491;53.480;10.174;2022-07-21T04:41:50;20.30;99.90
1005;DHT22;491;53.480;10.174;2022-07-21T04:44:16;20.40;99.90
1005;DHT22;491;53.480;10.174;2022-07-21T04:46:41;20.40;99.90
1005;DHT22;491;53.480;10.174;2022-07-21T04:49:07;20.40;99.90
1005;DHT22;491;53.480;10.174;2022-07-21T04:51:32;20.40;99.90
1005;DHT22;491;53.480;10.174;2022-07-21T04:53:58;20.40;99.90
1005;DHT22;491;53.480;10.174;2022-07-21T04:56:23;20.40;99.90
1005;DHT22;491;53.480;10.174;2022-07-21T04:58:49;20.50;99.90
1005;DHT22;491;53.480;10.174;2022-07-21T05:01:14;20.50;99.90
1005;DHT22;491;53.480;10.174;2022-07-21T05:03:43;20.50;99.90
1005;DHT22;491;53.480;10.174;2022-07-21T05:06:08;20.50;99.90
1005;DHT22;491;53.480;10.174;2022-07-21T05:08:34;20.50;99.90
1005;DHT22;491;53.480;10.174;2022-07-21T05:10:59;20.60;99.90
1005;DHT22;491;53.480;10.174;2022-07-21T05:13:25;20.70;99.90
1005;DHT22;491;53.480;10.174;2022-07-21T05:15:50;20.70;99.90
1005;DHT22;491;53.480;10.174;2022-07-21T05:18:16;20.70;99.90
1005;DHT22;491;53.480;10.174;2022-07-21T05:20:41;20.70;99.90
1005;DHT22;491;53.480;10.174;2022-07-21T05:23:07;20.70;99.90
1005;DHT22;491;53.480;10.174;2022-07-21T05:25:34;20.70;99.90
1005;DHT22;491;53.480;10.174;2022-07-21T05:28:01;20.70;99.90
1005;DHT22;491;53.480;10.174;2022-07-21T05:30:26;20.60;99.90
1005;DHT22;491;53.480;10.174;2022-07-21T05:32:52;20.60;99.90
1005;DHT22;491;53.480;10.174;2022-07-21T05:35:17;20.60;99.90
1005;DHT22;491;53.480;10.174;2022-07-21T05:37:43;20.50;99.90
1005;DHT22;491;53.480;10.174;2022-07-21T05:40:09;20.50;99.90
1005;DHT22;491;53.480;10.174;2022-07-21T05:42:35;20.50;99.90
1005;DHT22;491;53.480;10.174;2022-07-21T05:45:01;20.60;99.90
1005;DHT22;491;53.480;10.174;2022-07-21T05:47:27;20.70;99.90
1005;DHT22;491;53.480;10.174;2022-07-21T05:49:53;20.80;99.90
1005;DHT22;491;53.480;10.174;2022-07-21T05:52:19;20.80;99.90
1005;DHT22;491;53.480;10.174;2022-07-21T05:54:44;20.90;99.90
1005;DHT22;491;53.480;10.174;2022-07-21T05:57:10;20.80;94.20
1005;DHT22;491;53.480;10.174;2022-07-21T05:59:35;20.80;99.90
1005;DHT22;491;53.480;10.174;2022-07-21T06:02:01;20.80;99.90
1005;DHT22;491;53.480;10.174;2022-07-21T06:04:26;20.80;99.90
1005;DHT22;491;53.480;10.174;2022-07-21T06:06:51;20.80;99.90
1005;DHT22;491;53.480;10.174;2022-07-21T06:09:18;20.80;99.90
1005;DHT22;491;53.480;10.174;2022-07-21T06:11:47;20.80;99.90
1005;DHT22;491;53.480;10.174;2022-07-21T06:14:13;20.80;99.90
1005;DHT22;491;53.480;10.174;2022-07-21T06:16:38;20.70;99.90
1005;DHT22;491;53.480;10.174;2022-07-21T06:19:05;20.70;99.90
1005;DHT22;491;53.480;10.174;2022-07-21T06:21:32;20.60;99.90
1005;DHT22;491;53.480;10.174;2022-07-21T06:23:58;20.50;99.90
1005;DHT22;491;53.480;10.174;2022-07-21T06:26:23;20.40;99.90
1005;DHT22;491;53.480;10.174;2022-07-21T06:28:49;20.40;99.90
1005;DHT22;491;53.480;10.174;2022-07-21T06:31:14;20.50;99.90
1005;DHT22;491;53.480;10.174;2022-07-21T06:33:40;20.40;99.90
1005;DHT22;491;53.480;10.174;2022-07-21T06:36:08;20.30;99.90
1005;DHT22;491;53.480;10.174;2022-07-21T06:38:33;20.20;99.90
1005;DHT22;491;53.480;10.174;2022-07-21T06:40:59;20.20;99.90
1005;DHT22;491;53.480;10.174;2022-07-21T06:43:24;20.10;99.90
1005;DHT22;491;53.480;10.174;2022-07-21T06:45:50;20.00;99.90
1005;DHT22;491;53.480;10.174;2022-07-21T06:48:16;19.90;99.90
1005;DHT22;491;53.480;10.174;2022-07-21T06:50:42;19.90;99.90
1005;DHT22;491;53.480;10.174;2022-07-21T06:53:08;19.90;99.90
1005;DHT22;491;53.480;10.174;2022-07-21T06:55:34;19.90;99.90
1005;DHT22;491;53.480;10.174;2022-07-21T06:58:14;19.90;99.90
1005;DHT22;491;53.480;10.174;2022-07-21T07:00:41;19.90;99.90
1005;DHT22;491;53.480;10.174;2022-07-21T07:03:06;19.90;99.90
1005;DHT22;491;53.480;10.174;2022-07-21T07:05:32;19.90;99.90
1005;DHT22;491;53.480;10.174;2022-07-21T07:07:58;19.90;99.90
1005;DHT22;491;53.480;10.174;2022-07-21T07:10:24;19.90;99.90
1005;DHT22;491;53.480;10.174;2022-07-21T07:12:49;19.90;99.90
1005;DHT22;491;53.480;10.174;2022-07-21T07:15:17;20.00;99.90
1005;DHT22;491;53.480;10.174;2022-07-21T07:17:43;20.10;99.90
1005;DHT22;491;53.480;10.174;2022-07-21T07:20:08;20.20;99.90
1005;DHT22;491;53.480;10.174;2022-07-21T07:22:34;20.10;99.90
1005;DHT22;491;53.480;10.174;2022-07-21T07:25:00;20.00;99.90
1005;DHT22;491;53.480;10.174;2022-07-21T07:27:25;20.10;99.90
1005;DHT22;491;53.480;10.174;2022-07-21T07:29:51;20.10;99.90
1005;DHT22;491;53.480;10.174;2022-07-21T07:32:17;20.10;99.90
1005;DHT22;491;53.480;10.174;2022-07-21T07:34:42;20.00;99.90
1005;DHT22;491;53.480;10.174;2022-07-21T07:37:08;19.90;99.90
1005;DHT22;491;53.480;10.174;2022-07-21T07:39:33;20.00;99.90
1005;DHT22;491;53.480;10.174;2022-07-21T07:41:59;20.00;99.90
1005;DHT22;491;53.480;10.174;2022-07-21T07:44:25;20.00;99.90
1005;DHT22;491;53.480;10.174;2022-07-21T07:46:50;20.10;99.90
1005;DHT22;491;53.480;10.174;2022-07-21T07:49:16;20.10;99.90
1005;DHT22;491;53.480;10.174;2022-07-21T07:51:42;20.30;99.90
1005;DHT22;491;53.480;10.174;2022-07-21T07:54:08;20.30;99.90
1005;DHT22;491;53.480;10.174;2022-07-21T07:56:33;20.40;99.90
1005;DHT22;491;53.480;10.174;2022-07-21T07:58:59;20.50;99.90
1005;DHT22;491;53.480;10.174;2022-07-21T08:01:24;20.70;99.90
1005;DHT22;491;53.480;10.174;2022-07-21T08:03:53;20.90;99.90
1005;DHT22;491;53.480;10.174;2022-07-21T08:06:18;20.90;99.90
1005;DHT22;491;53.480;10.174;2022-07-21T08:08:44;20.80;99.90
1005;DHT22;491;53.480;10.174;2022-07-21T08:11:11;20.80;99.90
1005;DHT22;491;53.480;10.174;2022-07-21T08:13:38;20.70;99.90
1005;DHT22;491;53.480;10.174;2022-07-21T08:16:04;20.70;99.90
1005;DHT22;491;53.480;10.174;2022-07-21T08:18:29;20.80;99.90
1005;DHT22;491;53.480;10.174;2022-07-21T08:20:55;20.90;99.90
1005;DHT22;491;53.480;10.174;2022-07-21T08:23:20;20.90;99.90
1005;DHT22;491;53.480;10.174;2022-07-21T08:25:46;21.00;99.90
1005;DHT22;491;53.480;10.174;2022-07-21T08:28:12;21.10;99.90
1005;DHT22;491;53.480;10.174;2022-07-21T08:30:40;21.30;99.90
1005;DHT22;491;53.480;10.174;2022-07-21T08:33:05;21.50;99.90
1005;DHT22;491;53.480;10.174;2022-07-21T08:35:31;21.70;99.90
1005;DHT22;491;53.480;10.174;2022-07-21T08:38:00;22.00;99.90
1005;DHT22;491;53.480;10.174;2022-07-21T08:40:30;22.20;99.90
1005;DHT22;491;53.480;10.174;2022-07-21T08:42:56;22.40;99.90
1005;DHT22;491;53.480;10.174;2022-07-21T08:45:22;22.60;99.90
1005;DHT22;491;53.480;10.174;2022-07-21T08:47:55;22.60;99.90
1005;DHT22;491;53.480;10.174;2022-07-21T08:50:26;22.60;99.90
1005;DHT22;491;53.480;10.174;2022-07-21T08:52:52;22.50;99.90
1005;DHT22;491;53.480;10.174;2022-07-21T08:55:18;22.30;99.90
1005;DHT22;491;53.480;10.174;2022-07-21T08:57:43;22.30;99.90
1005;DHT22;491;53.480;10.174;2022-07-21T09:00:09;22.00;99.90
1005;DHT22;491;53.480;10.174;2022-07-21T09:02:36;22.00;99.90
1005;DHT22;491;53.480;10.174;2022-07-21T09:05:07;21.90;99.90
1005;DHT22;491;53.480;10.174;2022-07-21T09:07:54;21.90;99.90
1005;DHT22;491;53.480;10.174;2022-07-21T09:10:35;21.90;99.90
1005;DHT22;491;53.480;10.174;2022-07-21T09:13:05;22.20;99.90
1005;DHT22;491;53.480;10.174;2022-07-21T09:15:32;22.30;99.90
1005;DHT22;491;53.480;10.174;2022-07-21T09:18:07;22.30;99.90
1005;DHT22;491;53.480;10.174;2022-07-21T09:20:34;22.60;99.90
1005;DHT22;491;53.480;10.174;2022-07-21T09:23:07;23.00;99.90
1005;DHT22;491;53.480;10.174;2022-07-21T09:25:39;24.20;99.90
1005;DHT22;491;53.480;10.174;2022-07-21T09:28:12;25.60;1.00
1005;DHT22;491;53.480;10.174;2022-07-21T09:30:58;24.80;1.00
1005;DHT22;491;53.480;10.174;2022-07-21T09:33:27;24.00;99.90
1005;DHT22;491;53.480;10.174;2022-07-21T09:38:32;23.50;99.90
1005;DHT22;491;53.480;10.174;2022-07-21T09:41:12;23.20;99.90
1005;DHT22;491;53.480;10.174;2022-07-21T09:43:53;23.20;99.90
1005;DHT22;491;53.480;10.174;2022-07-21T09:46:27;23.30;99.90
1005;DHT22;491;53.480;10.174;2022-07-21T09:48:56;24.00;99.90
1005;DHT22;491;53.480;10.174;2022-07-21T09:53:52;24.00;75.60
1005;DHT22;491;53.480;10.174;2022-07-21T09:56:19;23.80;99.90
1005;DHT22;491;53.480;10.174;2022-07-21T09:58:49;24.00;99.90
1005;DHT22;491;53.480;10.174;2022-07-21T10:01:15;24.80;1.00
1005;DHT22;491;53.480;10.174;2022-07-21T10:03:45;24.70;1.00
1005;DHT22;491;53.480;10.174;2022-07-21T10:06:11;25.20;1.00
1005;DHT22;491;53.480;10.174;2022-07-21T10:08:37;26.00;99.90
1005;DHT22;491;53.480;10.174;2022-07-21T10:11:04;27.10;1.00
1005;DHT22;491;53.480;10.174;2022-07-21T10:13:30;27.10;99.90
1005;DHT22;491;53.480;10.174;2022-07-21T10:15:57;26.60;1.00
1005;DHT22;491;53.480;10.174;2022-07-21T10:18:26;25.80;99.90
1005;DHT22;491;53.480;10.174;2022-07-21T10:21:01;25.60;99.90
1005;DHT22;491;53.480;10.174;2022-07-21T10:23:41;25.80;2.30
1005;DHT22;491;53.480;10.174;2022-07-21T10:26:08;25.40;99.90
1005;DHT22;491;53.480;10.174;2022-07-21T10:28:33;25.10;99.90
1005;DHT22;491;53.480;10.174;2022-07-21T10:31:12;25.00;1.00
1005;DHT22;491;53.480;10.174;2022-07-21T10:41:38;26.50;99.90
1005;DHT22;491;53.480;10.174;2022-07-21T10:47:20;26.50;1.00
1005;DHT22;491;53.480;10.174;2022-07-21T10:49:56;25.90;1.00
1005;DHT22;491;53.480;10.174;2022-07-21T10:55:17;24.90;9.50
1005;DHT22;491;53.480;10.174;2022-07-21T11:00:34;26.60;1.00
1005;DHT22;491;53.480;10.174;2022-07-21T11:03:03;28.00;99.90
1005;DHT22;491;53.480;10.174;2022-07-21T11:05:32;29.10;1.00
1005;DHT22;491;53.480;10.174;2022-07-21T11:08:18;29.60;99.90
1005;DHT22;491;53.480;10.174;2022-07-21T11:10:50;28.00;99.90
1005;DHT22;491;53.480;10.174;2022-07-21T11:13:17;27.10;99.90
1005;DHT22;491;53.480;10.174;2022-07-21T11:18:23;26.90;1.00
1005;DHT22;491;53.480;10.174;2022-07-21T11:21:07;28.00;1.00
1005;DHT22;491;53.480;10.174;2022-07-21T11:23:47;27.70;99.90
1005;DHT22;491;53.480;10.174;2022-07-21T11:26:16;27.20;1.00
1005;DHT22;491;53.480;10.174;2022-07-21T11:28:42;26.90;1.00
1005;DHT22;491;53.480;10.174;2022-07-21T11:31:11;26.50;5.30
1005;DHT22;491;53.480;10.174;2022-07-21T11:33:42;26.10;99.90
1005;DHT22;491;53.480;10.174;2022-07-21T11:36:08;26.20;13.60
1005;DHT22;491;53.480;10.174;2022-07-21T11:38:34;26.20;99.90
1005;DHT22;491;53.480;10.174;2022-07-21T11:41:13;26.50;1.00
1005;DHT22;491;53.480;10.174;2022-07-21T11:43:40;26.90;1.00
1005;DHT22;491;53.480;10.174;2022-07-21T11:46:06;27.20;1.00
1005;DHT22;491;53.480;10.174;2022-07-21T11:48:32;27.80;1.00
1005;DHT22;491;53.480;10.174;2022-07-21T11:51:02;27.90;99.90
1005;DHT22;491;53.480;10.174;2022-07-21T11:53:28;27.80;99.90
1005;DHT22;491;53.480;10.174;2022-07-21T11:55:54;27.10;99.90
1005;DHT22;491;53.480;10.174;2022-07-21T11:58:20;26.60;1.00
1005;DHT22;491;53.480;10.174;2022-07-21T12:00:46;26.50;13.80
1005;DHT22;491;53.480;10.174;2022-07-21T12:03:12;26.50;1.00
1005;DHT22;491;53.480;10.174;2022-07-21T12:05:39;26.70;1.00
1005;DHT22;491;53.480;10.174;2022-07-21T12:08:05;26.50;1.00
1005;DHT22;491;53.480;10.174;2022-07-21T12:10:31;26.40;1.00
1005;DHT22;491;53.480;10.174;2022-07-21T12:13:04;26.70;99.90
1005;DHT22;491;53.480;10.174;2022-07-21T12:15:33;26.80;99.90
1005;DHT22;491;53.480;10.174;2022-07-21T12:18:06;27.50;99.60
1005;DHT22;491;53.480;10.174;2022-07-21T12:20:34;29.00;99.90
1005;DHT22;491;53.480;10.174;2022-07-21T12:23:02;28.90;99.90
1005;DHT22;491;53.480;10.174;2022-07-21T12:25:37;28.90;99.90
1005;DHT22;491;53.480;10.174;2022-07-21T12:28:04;30.10;99.90
1005;DHT22;491;53.480;10.174;2022-07-21T12:30:35;30.60;99.90
1005;DHT22;491;53.480;10.174;2022-07-21T12:33:03;31.00;99.90
1005;DHT22;491;53.480;10.174;2022-07-21T12:35:30;29.90;61.00
1005;DHT22;491;53.480;10.174;2022-07-21T12:38:01;29.70;73.20
1005;DHT22;491;53.480;10.174;2022-07-21T12:40:29;29.70;93.50
1005;DHT22;491;53.480;10.174;2022-07-21T12:45:29;29.40;79.10
1005;DHT22;491;53.480;10.174;2022-07-21T12:48:10;30.00;66.10
1005;DHT22;491;53.480;10.174;2022-07-21T12:50:37;30.30;68.90
1005;DHT22;491;53.480;10.174;2022-07-21T12:53:10;30.10;34.90
1005;DHT22;491;53.480;10.174;2022-07-21T12:55:37;29.60;52.60
1005;DHT22;491;53.480;10.174;2022-07-21T12:58:03;29.10;57.40
1005;DHT22;491;53.480;10.174;2022-07-21T13:00:29;28.50;80.00
1005;DHT22;491;53.480;10.174;2022-07-21T13:02:56;28.10;95.20
1005;DHT22;491;53.480;10.174;2022-07-21T13:05:23;28.60;93.50
1005;DHT22;491;53.480;10.174;2022-07-21T13:07:49;28.70;80.10
1005;DHT22;491;53.480;10.174;2022-07-21T13:10:16;29.30;64.70
1005;DHT22;491;53.480;10.174;2022-07-21T13:12:42;29.10;54.60
1005;DHT22;491;53.480;10.174;2022-07-21T13:15:08;29.30;56.50
1005;DHT22;491;53.480;10.174;2022-07-21T13:17:33;29.10;48.10
1005;DHT22;491;53.480;10.174;2022-07-21T13:19:59;28.40;54.40
1005;DHT22;491;53.480;10.174;2022-07-21T13:22:24;27.90;75.90
1005;DHT22;491;53.480;10.174;2022-07-21T13:24:50;27.80;94.40
1005;DHT22;491;53.480;10.174;2022-07-21T13:27:16;27.50;82.30
1005;DHT22;491;53.480;10.174;2022-07-21T13:29:41;27.40;98.40
1005;DHT22;491;53.480;10.174;2022-07-21T13:32:07;27.60;99.90
1005;DHT22;491;53.480;10.174;2022-07-21T13:34:34;27.60;92.10
1005;DHT22;491;53.480;10.174;2022-07-21T13:37:00;28.30;96.80
1005;DHT22;491;53.480;10.174;2022-07-21T13:39:25;29.20;87.40
1005;DHT22;491;53.480;10.174;2022-07-21T13:41:55;30.00;63.30
1005;DHT22;491;53.480;10.174;2022-07-21T13:44:20;30.40;58.30
1005;DHT22;491;53.480;10.174;2022-07-21T13:46:46;30.20;36.40
1005;DHT22;491;53.480;10.174;2022-07-21T13:49:11;30.10;29.70
1005;DHT22;491;53.480;10.174;2022-07-21T13:51:37;29.90;22.30
1005;DHT22;491;53.480;10.174;2022-07-21T13:54:02;30.00;40.70
1005;DHT22;491;53.480;10.174;2022-07-21T13:56:28;29.70;34.10
1005;DHT22;491;53.480;10.174;2022-07-21T13:58:54;29.90;50.00
1005;DHT22;491;53.480;10.174;2022-07-21T14:01:19;30.00;54.80
1005;DHT22;491;53.480;10.174;2022-07-21T14:03:46;30.30;63.10
1005;DHT22;491;53.480;10.174;2022-07-21T14:06:12;30.30;48.00
1005;DHT22;491;53.480;10.174;2022-07-21T14:08:37;30.20;44.80
1005;DHT22;491;53.480;10.174;2022-07-21T14:11:04;30.00;33.80
1005;DHT22;491;53.480;10.174;2022-07-21T14:13:30;29.50;34.00
1005;DHT22;491;53.480;10.174;2022-07-21T14:15:56;28.70;24.50
1005;DHT22;491;53.480;10.174;2022-07-21T14:18:21;28.10;47.70
1005;DHT22;491;53.480;10.174;2022-07-21T14:20:47;28.00;65.50
1005;DHT22;491;53.480;10.174;2022-07-21T14:23:20;27.90;73.20
1005;DHT22;491;53.480;10.174;2022-07-21T14:25:50;28.00;76.60
1005;DHT22;491;53.480;10.174;2022-07-21T14:28:16;28.40;80.30
1005;DHT22;491;53.480;10.174;2022-07-21T14:30:42;28.20;50.50
1005;DHT22;491;53.480;10.174;2022-07-21T14:33:08;28.00;63.50
1005;DHT22;491;53.480;10.174;2022-07-21T14:35:33;28.20;72.00
1005;DHT22;491;53.480;10.174;2022-07-21T14:37:59;28.10;70.40
1005;DHT22;491;53.480;10.174;2022-07-21T14:40:25;28.10;82.70
1005;DHT22;491;53.480;10.174;2022-07-21T14:42:51;27.60;58.50
1005;DHT22;491;53.480;10.174;2022-07-21T14:45:21;27.40;66.90
1005;DHT22;491;53.480;10.174;2022-07-21T14:47:48;26.80;79.10
1005;DHT22;491;53.480;10.174;2022-07-21T14:50:14;26.80;97.30
1005;DHT22;491;53.480;10.174;2022-07-21T14:52:40;26.90;99.90
1005;DHT22;491;53.480;10.174;2022-07-21T14:55:07;27.00;99.90
1005;DHT22;491;53.480;10.174;2022-07-21T14:57:33;26.90;99.90
1005;DHT22;491;53.480;10.174;2022-07-21T14:59:59;26.70;99.90
1005;DHT22;491;53.480;10.174;2022-07-21T15:02:24;26.50;99.90
1005;DHT22;491;53.480;10.174;2022-07-21T15:04:50;26.40;99.90
1005;DHT22;491;53.480;10.174;2022-07-21T15:07:15;26.10;99.90
1005;DHT22;491;53.480;10.174;2022-07-21T15:09:42;25.70;99.90
1005;DHT22;491;53.480;10.174;2022-07-21T15:12:08;25.10;1.00
1005;DHT22;491;53.480;10.174;2022-07-21T15:14:33;23.60;99.90
1005;DHT22;491;53.480;10.174;2022-07-21T15:16:59;21.90;99.90
1005;DHT22;491;53.480;10.174;2022-07-21T15:19:24;21.00;99.90
1005;DHT22;491;53.480;10.174;2022-07-21T15:21:50;21.00;99.90
1005;DHT22;491;53.480;10.174;2022-07-21T15:24:15;21.10;99.90
1005;DHT22;491;53.480;10.174;2022-07-21T15:26:42;20.90;99.90
1005;DHT22;491;53.480;10.174;2022-07-21T15:29:08;21.10;99.90
1005;DHT22;491;53.480;10.174;2022-07-21T15:31:33;20.80;99.90
1005;DHT22;491;53.480;10.174;2022-07-21T15:34:00;20.70;99.90
1005;DHT22;491;53.480;10.174;2022-07-21T15:36:25;20.90;99.90
1005;DHT22;491;53.480;10.174;2022-07-21T15:38:51;21.10;99.90
1005;DHT22;491;53.480;10.174;2022-07-21T15:41:17;21.40;99.90
1005;DHT22;491;53.480;10.174;2022-07-21T15:43:42;21.60;99.90
1005;DHT22;491;53.480;10.174;2022-07-21T15:46:08;21.60;99.90
1005;DHT22;491;53.480;10.174;2022-07-21T15:48:34;21.70;99.90
1005;DHT22;491;53.480;10.174;2022-07-21T15:50:59;21.90;99.90
1005;DHT22;491;53.480;10.174;2022-07-21T15:53:25;22.10;99.90
1005;DHT22;491;53.480;10.174;2022-07-21T15:55:50;22.00;99.90
1005;DHT22;491;53.480;10.174;2022-07-21T15:58:16;22.30;99.90
1005;DHT22;491;53.480;10.174;2022-07-21T16:00:41;22.30;99.90
1005;DHT22;491;53.480;10.174;2022-07-21T16:03:06;22.40;99.90
1005;DHT22;491;53.480;10.174;2022-07-21T16:05:32;22.60;99.90
1005;DHT22;491;53.480;10.174;2022-07-21T16:07:59;22.80;99.90
1005;DHT22;491;53.480;10.174;2022-07-21T16:10:25;22.90;99.90
1005;DHT22;491;53.480;10.174;2022-07-21T16:12:51;23.00;99.90
1005;DHT22;491;53.480;10.174;2022-07-21T16:15:18;23.00;99.90
1005;DHT22;491;53.480;10.174;2022-07-21T16:17:44;23.10;99.90
1005;DHT22;491;53.480;10.174;2022-07-21T16:20:12;23.20;60.70
1005;DHT22;491;53.480;10.174;2022-07-21T16:22:39;23.40;99.90
1005;DHT22;491;53.480;10.174;2022-07-21T16:25:07;23.50;99.90
1005;DHT22;491;53.480;10.174;2022-07-21T16:27:32;23.50;99.90
1005;DHT22;491;53.480;10.174;2022-07-21T16:29:58;23.50;1.00
1005;DHT22;491;53.480;10.174;2022-07-21T16:32:24;23.50;99.90